sensor_id;sensor_type;location;lat;lon;timestamp;P1;durP1;ratioP1;P2;durP2;ratioP2
40453;SDS011;26160;51.858;4.398;2024-02-21T00:01:14;17.43;;;3.43;;
40453;SDS011;26160;51.858;4.398;2024-02-21T00:03:41;15.40;;;3.87;;
40453;SDS011;26160;51.858;4.398;2024-02-21T00:06:08;10.70;;;3.07;;
40453;SDS011;26160;51.858;4.398;2024-02-21T00:08:34;18.30;;;4.13;;
40453;SDS011;26160;51.858;4.398;2024-02-21T00:11:00;14.97;;;3.33;;
40453;SDS011;26160;51.858;4.398;2024-02-21T00:13:26;16.20;;;3.27;;
40453;SDS011;26160;51.858;4.398;2024-02-21T00:15:52;20.87;;;3.77;;
40453;SDS011;26160;51.858;4.398;2024-02-21T00:18:18;20.37;;;3.67;;
40453;SDS011;26160;51.858;4.398;2024-02-21T00:20:44;15.37;;;3.83;;
40453;SDS011;26160;51.858;4.398;2024-02-21T00:23:10;13.17;;;3.80;;
40453;SDS011;26160;51.858;4.398;2024-02-21T00:25:37;22.53;;;4.03;;
40453;SDS011;26160;51.858;4.398;2024-02-21T00:28:03;18.10;;;3.57;;
40453;SDS011;26160;51.858;4.398;2024-02-21T00:30:32;20.10;;;4.67;;
40453;SDS011;26160;51.858;4.398;2024-02-21T00:32:58;23.13;;;3.97;;
40453;SDS011;26160;51.858;4.398;2024-02-21T00:35:26;17.00;;;3.43;;
40453;SDS011;26160;51.858;4.398;2024-02-21T00:37:52;20.67;;;3.83;;
40453;SDS011;26160;51.858;4.398;2024-02-21T00:40:18;12.97;;;4.27;;
40453;SDS011;26160;51.858;4.398;2024-02-21T00:42:47;16.93;;;3.23;;
40453;SDS011;26160;51.858;4.398;2024-02-21T00:45:13;15.27;;;3.53;;
40453;SDS011;26160;51.858;4.398;2024-02-21T00:47:39;16.10;;;3.57;;
40453;SDS011;26160;51.858;4.398;2024-02-21T00:50:05;17.83;;;4.30;;
40453;SDS011;26160;51.858;4.398;2024-02-21T00:52:33;18.23;;;4.53;;
40453;SDS011;26160;51.858;4.398;2024-02-21T00:54:59;20.97;;;4.20;;
40453;SDS011;26160;51.858;4.398;2024-02-21T00:57:25;17.57;;;4.63;;
40453;SDS011;26160;51.858;4.398;2024-02-21T00:59:52;16.37;;;4.37;;
40453;SDS011;26160;51.858;4.398;2024-02-21T01:02:18;19.00;;;4.47;;
40453;SDS011;26160;51.858;4.398;2024-02-21T01:04:44;16.13;;;4.37;;
40453;SDS011;26160;51.858;4.398;2024-02-21T01:07:10;16.63;;;4.70;;
40453;SDS011;26160;51.858;4.398;2024-02-21T01:09:36;22.60;;;4.13;;
40453;SDS011;26160;51.858;4.398;2024-02-21T01:12:02;16.40;;;4.20;;
40453;SDS011;26160;51.858;4.398;2024-02-21T01:14:29;13.30;;;4.30;;
40453;SDS011;26160;51.858;4.398;2024-02-21T01:16:55;15.27;;;3.57;;
40453;SDS011;26160;51.858;4.398;2024-02-21T01:19:21;11.43;;;3.23;;
40453;SDS011;26160;51.858;4.398;2024-02-21T01:21:47;15.07;;;4.33;;
40453;SDS011;26160;51.858;4.398;2024-02-21T01:24:13;17.20;;;4.77;;
40453;SDS011;26160;51.858;4.398;2024-02-21T01:26:40;23.53;;;3.87;;
40453;SDS011;26160;51.858;4.398;2024-02-21T01:29:06;21.23;;;4.33;;
40453;SDS011;26160;51.858;4.398;2024-02-21T01:31:32;15.13;;;3.43;;
40453;SDS011;26160;51.858;4.398;2024-02-21T01:33:58;17.73;;;3.80;;
40453;SDS011;26160;51.858;4.398;2024-02-21T01:36:24;12.47;;;3.80;;
40453;SDS011;26160;51.858;4.398;2024-02-21T01:38:51;13.53;;;4.10;;
40453;SDS011;26160;51.858;4.398;2024-02-21T01:41:17;15.73;;;4.07;;
40453;SDS011;26160;51.858;4.398;2024-02-21T01:43:43;17.30;;;4.03;;
40453;SDS011;26160;51.858;4.398;2024-02-21T01:46:09;15.27;;;4.77;;
40453;SDS011;26160;51.858;4.398;2024-02-21T01:48:35;10.67;;;3.70;;
40453;SDS011;26160;51.858;4.398;2024-02-21T01:51:01;16.57;;;3.90;;
40453;SDS011;26160;51.858;4.398;2024-02-21T01:53:30;18.97;;;4.20;;
40453;SDS011;26160;51.858;4.398;2024-02-21T01:56:02;14.40;;;4.45;;
40453;SDS011;26160;51.858;4.398;2024-02-21T01:58:31;12.00;;;3.60;;
40453;SDS011;26160;51.858;4.398;2024-02-21T02:03:34;12.50;;;3.63;;
40453;SDS011;26160;51.858;4.398;2024-02-21T02:06:00;20.33;;;3.87;;
40453;SDS011;26160;51.858;4.398;2024-02-21T02:08:27;16.83;;;4.90;;
40453;SDS011;26160;51.858;4.398;2024-02-21T02:10:53;14.83;;;3.97;;
40453;SDS011;26160;51.858;4.398;2024-02-21T02:13:19;16.60;;;4.10;;
40453;SDS011;26160;51.858;4.398;2024-02-21T02:15:46;11.03;;;3.07;;
40453;SDS011;26160;51.858;4.398;2024-02-21T02:18:14;15.30;;;3.50;;
40453;SDS011;26160;51.858;4.398;2024-02-21T02:20:41;14.47;;;3.50;;
40453;SDS011;26160;51.858;4.398;2024-02-21T02:23:10;10.00;;;3.60;;
40453;SDS011;26160;51.858;4.398;2024-02-21T02:25:42;14.47;;;4.07;;
40453;SDS011;26160;51.858;4.398;2024-02-21T02:28:13;13.93;;;3.60;;
40453;SDS011;26160;51.858;4.398;2024-02-21T02:30:39;16.33;;;4.77;;
40453;SDS011;26160;51.858;4.398;2024-02-21T02:33:05;11.67;;;3.63;;
40453;SDS011;26160;51.858;4.398;2024-02-21T02:35:31;14.53;;;4.67;;
40453;SDS011;26160;51.858;4.398;2024-02-21T02:37:58;9.63;;;3.43;;
40453;SDS011;26160;51.858;4.398;2024-02-21T02:40:24;12.57;;;4.20;;
40453;SDS011;26160;51.858;4.398;2024-02-21T02:42:52;14.73;;;4.00;;
40453;SDS011;26160;51.858;4.398;2024-02-21T02:45:21;13.47;;;4.37;;
40453;SDS011;26160;51.858;4.398;2024-02-21T02:47:52;13.97;;;4.30;;
40453;SDS011;26160;51.858;4.398;2024-02-21T02:50:19;11.20;;;3.40;;
40453;SDS011;26160;51.858;4.398;2024-02-21T02:52:49;13.37;;;3.70;;
40453;SDS011;26160;51.858;4.398;2024-02-21T02:55:16;11.40;;;3.77;;
40453;SDS011;26160;51.858;4.398;2024-02-21T02:57:42;16.57;;;3.87;;
40453;SDS011;26160;51.858;4.398;2024-02-21T03:00:09;11.80;;;4.30;;
40453;SDS011;26160;51.858;4.398;2024-02-21T03:02:38;12.00;;;3.73;;
40453;SDS011;26160;51.858;4.398;2024-02-21T03:05:18;16.10;;;3.70;;
40453;SDS011;26160;51.858;4.398;2024-02-21T03:07:46;12.13;;;4.23;;
40453;SDS011;26160;51.858;4.398;2024-02-21T03:10:13;17.37;;;4.27;;
40453;SDS011;26160;51.858;4.398;2024-02-21T03:12:41;11.57;;;4.37;;
40453;SDS011;26160;51.858;4.398;2024-02-21T03:15:08;14.80;;;4.83;;
40453;SDS011;26160;51.858;4.398;2024-02-21T03:17:34;11.17;;;4.60;;
40453;SDS011;26160;51.858;4.398;2024-02-21T03:20:04;12.87;;;4.67;;
40453;SDS011;26160;51.858;4.398;2024-02-21T03:22:31;13.20;;;5.20;;
40453;SDS011;26160;51.858;4.398;2024-02-21T03:25:00;13.80;;;5.23;;
40453;SDS011;26160;51.858;4.398;2024-02-21T03:27:26;13.27;;;5.30;;
40453;SDS011;26160;51.858;4.398;2024-02-21T03:29:52;11.70;;;5.17;;
40453;SDS011;26160;51.858;4.398;2024-02-21T03:32:19;11.40;;;4.70;;
40453;SDS011;26160;51.858;4.398;2024-02-21T03:34:45;9.80;;;4.73;;
40453;SDS011;26160;51.858;4.398;2024-02-21T03:37:11;11.57;;;4.87;;
40453;SDS011;26160;51.858;4.398;2024-02-21T03:39:39;13.10;;;5.77;;
40453;SDS011;26160;51.858;4.398;2024-02-21T03:42:06;13.10;;;5.50;;
40453;SDS011;26160;51.858;4.398;2024-02-21T03:44:32;8.63;;;4.93;;
40453;SDS011;26160;51.858;4.398;2024-02-21T03:46:59;9.63;;;5.50;;
40453;SDS011;26160;51.858;4.398;2024-02-21T03:49:26;13.17;;;5.93;;
40453;SDS011;26160;51.858;4.398;2024-02-21T03:51:52;14.17;;;6.03;;
40453;SDS011;26160;51.858;4.398;2024-02-21T03:54:18;9.13;;;5.33;;
40453;SDS011;26160;51.858;4.398;2024-02-21T03:56:45;13.20;;;6.07;;
40453;SDS011;26160;51.858;4.398;2024-02-21T03:59:13;12.20;;;5.63;;
40453;SDS011;26160;51.858;4.398;2024-02-21T04:01:39;10.00;;;5.63;;
40453;SDS011;26160;51.858;4.398;2024-02-21T04:04:06;14.20;;;6.57;;
40453;SDS011;26160;51.858;4.398;2024-02-21T04:06:32;12.40;;;5.93;;
40453;SDS011;26160;51.858;4.398;2024-02-21T04:08:58;11.10;;;5.07;;
40453;SDS011;26160;51.858;4.398;2024-02-21T04:11:24;11.23;;;5.47;;
40453;SDS011;26160;51.858;4.398;2024-02-21T04:13:51;11.00;;;5.80;;
40453;SDS011;26160;51.858;4.398;2024-02-21T04:16:17;12.73;;;5.80;;
40453;SDS011;26160;51.858;4.398;2024-02-21T04:18:43;12.57;;;6.10;;
40453;SDS011;26160;51.858;4.398;2024-02-21T04:21:09;6.80;;;4.80;;
40453;SDS011;26160;51.858;4.398;2024-02-21T04:23:39;13.50;;;5.93;;
40453;SDS011;26160;51.858;4.398;2024-02-21T04:26:05;10.67;;;6.00;;
40453;SDS011;26160;51.858;4.398;2024-02-21T04:28:32;15.07;;;6.60;;
40453;SDS011;26160;51.858;4.398;2024-02-21T04:30:58;9.70;;;6.13;;
40453;SDS011;26160;51.858;4.398;2024-02-21T04:33:24;13.60;;;6.07;;
40453;SDS011;26160;51.858;4.398;2024-02-21T04:35:50;12.03;;;6.10;;
40453;SDS011;26160;51.858;4.398;2024-02-21T04:38:17;16.83;;;6.40;;
40453;SDS011;26160;51.858;4.398;2024-02-21T04:40:43;16.70;;;6.30;;
40453;SDS011;26160;51.858;4.398;2024-02-21T04:43:09;19.77;;;6.80;;
40453;SDS011;26160;51.858;4.398;2024-02-21T04:45:36;15.13;;;7.10;;
40453;SDS011;26160;51.858;4.398;2024-02-21T04:48:02;11.83;;;6.53;;
40453;SDS011;26160;51.858;4.398;2024-02-21T04:50:28;18.50;;;7.27;;
40453;SDS011;26160;51.858;4.398;2024-02-21T04:52:54;13.70;;;7.47;;
40453;SDS011;26160;51.858;4.398;2024-02-21T04:55:20;14.63;;;6.50;;
40453;SDS011;26160;51.858;4.398;2024-02-21T04:57:47;9.77;;;7.23;;
40453;SDS011;26160;51.858;4.398;2024-02-21T05:00:13;14.40;;;7.03;;
40453;SDS011;26160;51.858;4.398;2024-02-21T05:02:39;9.93;;;7.17;;
40453;SDS011;26160;51.858;4.398;2024-02-21T05:05:06;13.73;;;7.50;;
40453;SDS011;26160;51.858;4.398;2024-02-21T05:07:32;13.77;;;7.93;;
40453;SDS011;26160;51.858;4.398;2024-02-21T05:10:00;17.67;;;9.70;;
40453;SDS011;26160;51.858;4.398;2024-02-21T05:12:27;22.60;;;10.87;;
40453;SDS011;26160;51.858;4.398;2024-02-21T05:14:53;19.83;;;11.20;;
40453;SDS011;26160;51.858;4.398;2024-02-21T05:17:19;21.93;;;12.37;;
40453;SDS011;26160;51.858;4.398;2024-02-21T05:19:45;17.83;;;11.23;;
40453;SDS011;26160;51.858;4.398;2024-02-21T05:22:11;23.30;;;12.43;;
40453;SDS011;26160;51.858;4.398;2024-02-21T05:24:38;21.27;;;12.83;;
40453;SDS011;26160;51.858;4.398;2024-02-21T05:27:05;24.10;;;11.87;;
40453;SDS011;26160;51.858;4.398;2024-02-21T05:29:33;19.67;;;11.47;;
40453;SDS011;26160;51.858;4.398;2024-02-21T05:31:59;22.77;;;12.33;;
40453;SDS011;26160;51.858;4.398;2024-02-21T05:34:25;20.97;;;12.50;;
40453;SDS011;26160;51.858;4.398;2024-02-21T05:36:52;24.73;;;11.90;;
40453;SDS011;26160;51.858;4.398;2024-02-21T05:39:18;18.83;;;11.57;;
40453;SDS011;26160;51.858;4.398;2024-02-21T05:41:45;19.20;;;10.20;;
40453;SDS011;26160;51.858;4.398;2024-02-21T05:44:11;17.83;;;10.60;;
40453;SDS011;26160;51.858;4.398;2024-02-21T05:46:38;22.57;;;10.93;;
40453;SDS011;26160;51.858;4.398;2024-02-21T05:49:04;25.23;;;12.00;;
40453;SDS011;26160;51.858;4.398;2024-02-21T05:51:33;24.40;;;11.60;;
40453;SDS011;26160;51.858;4.398;2024-02-21T05:54:00;24.40;;;10.80;;
40453;SDS011;26160;51.858;4.398;2024-02-21T05:56:27;23.03;;;10.47;;
40453;SDS011;26160;51.858;4.398;2024-02-21T05:58:53;23.07;;;11.00;;
40453;SDS011;26160;51.858;4.398;2024-02-21T06:01:20;25.07;;;10.63;;
40453;SDS011;26160;51.858;4.398;2024-02-21T06:03:49;23.67;;;10.50;;
40453;SDS011;26160;51.858;4.398;2024-02-21T06:06:15;27.17;;;11.60;;
40453;SDS011;26160;51.858;4.398;2024-02-21T06:08:42;23.17;;;10.87;;
40453;SDS011;26160;51.858;4.398;2024-02-21T06:11:08;24.23;;;10.87;;
40453;SDS011;26160;51.858;4.398;2024-02-21T06:13:37;23.10;;;12.27;;
40453;SDS011;26160;51.858;4.398;2024-02-21T06:16:07;25.27;;;10.67;;
40453;SDS011;26160;51.858;4.398;2024-02-21T06:18:34;25.63;;;11.33;;
40453;SDS011;26160;51.858;4.398;2024-02-21T06:21:02;30.97;;;12.23;;
40453;SDS011;26160;51.858;4.398;2024-02-21T06:23:31;26.27;;;11.97;;
40453;SDS011;26160;51.858;4.398;2024-02-21T06:25:58;29.43;;;12.50;;
40453;SDS011;26160;51.858;4.398;2024-02-21T06:28:24;35.63;;;12.17;;
40453;SDS011;26160;51.858;4.398;2024-02-21T06:30:50;27.67;;;12.30;;
40453;SDS011;26160;51.858;4.398;2024-02-21T06:33:16;22.50;;;12.07;;
40453;SDS011;26160;51.858;4.398;2024-02-21T06:35:42;26.13;;;13.40;;
40453;SDS011;26160;51.858;4.398;2024-02-21T06:38:11;30.07;;;13.67;;
40453;SDS011;26160;51.858;4.398;2024-02-21T06:40:41;28.93;;;13.10;;
40453;SDS011;26160;51.858;4.398;2024-02-21T06:43:07;35.53;;;13.37;;
40453;SDS011;26160;51.858;4.398;2024-02-21T06:45:33;26.30;;;12.27;;
40453;SDS011;26160;51.858;4.398;2024-02-21T06:47:59;26.47;;;13.83;;
40453;SDS011;26160;51.858;4.398;2024-02-21T06:50:25;25.40;;;13.50;;
40453;SDS011;26160;51.858;4.398;2024-02-21T06:52:51;33.73;;;14.27;;
40453;SDS011;26160;51.858;4.398;2024-02-21T06:55:17;27.83;;;14.60;;
40453;SDS011;26160;51.858;4.398;2024-02-21T06:57:44;31.33;;;15.00;;
40453;SDS011;26160;51.858;4.398;2024-02-21T07:00:10;32.20;;;14.17;;
40453;SDS011;26160;51.858;4.398;2024-02-21T07:02:37;29.17;;;14.23;;
40453;SDS011;26160;51.858;4.398;2024-02-21T07:05:03;29.30;;;13.80;;
40453;SDS011;26160;51.858;4.398;2024-02-21T07:07:30;32.37;;;14.60;;
40453;SDS011;26160;51.858;4.398;2024-02-21T07:09:56;36.80;;;14.33;;
40453;SDS011;26160;51.858;4.398;2024-02-21T07:12:23;33.03;;;14.47;;
40453;SDS011;26160;51.858;4.398;2024-02-21T07:14:49;30.47;;;14.43;;
40453;SDS011;26160;51.858;4.398;2024-02-21T07:17:15;30.97;;;14.40;;
40453;SDS011;26160;51.858;4.398;2024-02-21T07:19:41;34.17;;;16.00;;
40453;SDS011;26160;51.858;4.398;2024-02-21T07:22:09;31.13;;;15.77;;
40453;SDS011;26160;51.858;4.398;2024-02-21T07:24:36;31.53;;;15.87;;
40453;SDS011;26160;51.858;4.398;2024-02-21T07:27:03;36.23;;;15.43;;
40453;SDS011;26160;51.858;4.398;2024-02-21T07:29:30;32.43;;;15.23;;
40453;SDS011;26160;51.858;4.398;2024-02-21T07:31:56;40.27;;;16.83;;
40453;SDS011;26160;51.858;4.398;2024-02-21T07:34:22;31.83;;;15.50;;
40453;SDS011;26160;51.858;4.398;2024-02-21T07:36:48;33.93;;;15.83;;
40453;SDS011;26160;51.858;4.398;2024-02-21T07:39:14;32.17;;;15.43;;
40453;SDS011;26160;51.858;4.398;2024-02-21T07:41:40;40.33;;;16.47;;
40453;SDS011;26160;51.858;4.398;2024-02-21T07:44:09;30.40;;;15.93;;
40453;SDS011;26160;51.858;4.398;2024-02-21T07:46:35;31.83;;;15.77;;
40453;SDS011;26160;51.858;4.398;2024-02-21T07:49:01;31.37;;;16.67;;
40453;SDS011;26160;51.858;4.398;2024-02-21T07:51:28;32.43;;;16.60;;
40453;SDS011;26160;51.858;4.398;2024-02-21T07:53:54;31.47;;;16.40;;
40453;SDS011;26160;51.858;4.398;2024-02-21T07:56:21;34.50;;;16.03;;
40453;SDS011;26160;51.858;4.398;2024-02-21T07:58:47;30.50;;;15.37;;
40453;SDS011;26160;51.858;4.398;2024-02-21T08:01:19;33.03;;;15.57;;
40453;SDS011;26160;51.858;4.398;2024-02-21T08:03:46;27.15;;;14.43;;
40453;SDS011;26160;51.858;4.398;2024-02-21T08:06:13;34.30;;;14.93;;
40453;SDS011;26160;51.858;4.398;2024-02-21T08:08:39;29.97;;;14.40;;
40453;SDS011;26160;51.858;4.398;2024-02-21T08:11:06;26.60;;;15.33;;
40453;SDS011;26160;51.858;4.398;2024-02-21T08:13:32;30.47;;;14.83;;
40453;SDS011;26160;51.858;4.398;2024-02-21T08:15:58;26.20;;;13.77;;
40453;SDS011;26160;51.858;4.398;2024-02-21T08:18:25;30.97;;;14.67;;
40453;SDS011;26160;51.858;4.398;2024-02-21T08:20:51;30.83;;;15.13;;
40453;SDS011;26160;51.858;4.398;2024-02-21T08:23:18;27.10;;;13.97;;
40453;SDS011;26160;51.858;4.398;2024-02-21T08:25:44;26.17;;;13.80;;
40453;SDS011;26160;51.858;4.398;2024-02-21T08:28:11;26.90;;;13.93;;
40453;SDS011;26160;51.858;4.398;2024-02-21T08:30:38;26.83;;;15.30;;
40453;SDS011;26160;51.858;4.398;2024-02-21T08:33:04;28.60;;;16.13;;
40453;SDS011;26160;51.858;4.398;2024-02-21T08:35:30;25.23;;;15.37;;
40453;SDS011;26160;51.858;4.398;2024-02-21T08:37:57;30.03;;;14.97;;
40453;SDS011;26160;51.858;4.398;2024-02-21T08:40:23;27.87;;;14.17;;
40453;SDS011;26160;51.858;4.398;2024-02-21T08:42:49;24.87;;;13.70;;
40453;SDS011;26160;51.858;4.398;2024-02-21T08:45:15;29.73;;;14.50;;
40453;SDS011;26160;51.858;4.398;2024-02-21T08:47:42;24.87;;;15.40;;
40453;SDS011;26160;51.858;4.398;2024-02-21T08:50:08;21.20;;;15.17;;
40453;SDS011;26160;51.858;4.398;2024-02-21T08:52:37;26.17;;;13.90;;
40453;SDS011;26160;51.858;4.398;2024-02-21T08:55:03;35.23;;;15.23;;
40453;SDS011;26160;51.858;4.398;2024-02-21T08:57:30;29.73;;;13.40;;
40453;SDS011;26160;51.858;4.398;2024-02-21T09:00:05;21.10;;;13.13;;
40453;SDS011;26160;51.858;4.398;2024-02-21T09:02:36;27.37;;;13.10;;
40453;SDS011;26160;51.858;4.398;2024-02-21T09:05:05;22.57;;;12.63;;
40453;SDS011;26160;51.858;4.398;2024-02-21T09:07:31;21.80;;;12.93;;
40453;SDS011;26160;51.858;4.398;2024-02-21T09:09:58;20.87;;;13.50;;
40453;SDS011;26160;51.858;4.398;2024-02-21T09:12:24;21.00;;;13.30;;
40453;SDS011;26160;51.858;4.398;2024-02-21T09:14:50;22.53;;;12.87;;
40453;SDS011;26160;51.858;4.398;2024-02-21T09:17:16;21.10;;;12.17;;
40453;SDS011;26160;51.858;4.398;2024-02-21T09:19:43;24.53;;;12.47;;
40453;SDS011;26160;51.858;4.398;2024-02-21T09:22:10;17.50;;;11.40;;
40453;SDS011;26160;51.858;4.398;2024-02-21T09:24:36;21.77;;;11.60;;
40453;SDS011;26160;51.858;4.398;2024-02-21T09:27:02;17.03;;;11.23;;
40453;SDS011;26160;51.858;4.398;2024-02-21T09:29:28;20.07;;;11.30;;
40453;SDS011;26160;51.858;4.398;2024-02-21T09:31:54;17.93;;;10.50;;
40453;SDS011;26160;51.858;4.398;2024-02-21T09:34:20;19.93;;;10.13;;
40453;SDS011;26160;51.858;4.398;2024-02-21T09:36:47;23.30;;;10.77;;
40453;SDS011;26160;51.858;4.398;2024-02-21T09:39:13;15.60;;;10.27;;
40453;SDS011;26160;51.858;4.398;2024-02-21T09:41:45;19.13;;;10.57;;
40453;SDS011;26160;51.858;4.398;2024-02-21T09:46:49;18.23;;;9.80;;
40453;SDS011;26160;51.858;4.398;2024-02-21T09:49:30;16.07;;;9.90;;
40453;SDS011;26160;51.858;4.398;2024-02-21T09:52:06;15.97;;;9.80;;
40453;SDS011;26160;51.858;4.398;2024-02-21T09:54:33;16.73;;;10.10;;
40453;SDS011;26160;51.858;4.398;2024-02-21T09:57:00;11.20;;;9.07;;
40453;SDS011;26160;51.858;4.398;2024-02-21T09:59:31;15.60;;;9.03;;
40453;SDS011;26160;51.858;4.398;2024-02-21T10:01:58;14.17;;;10.00;;
40453;SDS011;26160;51.858;4.398;2024-02-21T10:04:28;15.77;;;9.10;;
40453;SDS011;26160;51.858;4.398;2024-02-21T10:06:55;18.10;;;9.03;;
40453;SDS011;26160;51.858;4.398;2024-02-21T10:09:24;13.73;;;8.73;;
40453;SDS011;26160;51.858;4.398;2024-02-21T10:11:55;11.97;;;7.77;;
40453;SDS011;26160;51.858;4.398;2024-02-21T10:14:22;13.20;;;8.57;;
40453;SDS011;26160;51.858;4.398;2024-02-21T10:16:49;13.37;;;7.87;;
40453;SDS011;26160;51.858;4.398;2024-02-21T10:19:24;10.80;;;7.70;;
40453;SDS011;26160;51.858;4.398;2024-02-21T10:22:04;10.30;;;7.67;;
40453;SDS011;26160;51.858;4.398;2024-02-21T10:24:33;9.68;;;7.28;;
40453;SDS011;26160;51.858;4.398;2024-02-21T10:27:01;11.60;;;7.03;;
40453;SDS011;26160;51.858;4.398;2024-02-21T10:29:31;10.50;;;7.13;;
40453;SDS011;26160;51.858;4.398;2024-02-21T10:32:08;14.03;;;7.27;;
40453;SDS011;26160;51.858;4.398;2024-02-21T10:34:39;10.97;;;6.80;;
40453;SDS011;26160;51.858;4.398;2024-02-21T10:37:07;9.87;;;7.93;;
40453;SDS011;26160;51.858;4.398;2024-02-21T10:39:40;12.83;;;7.97;;
40453;SDS011;26160;51.858;4.398;2024-02-21T10:42:07;12.47;;;7.87;;
40453;SDS011;26160;51.858;4.398;2024-02-21T10:44:37;15.17;;;7.93;;
40453;SDS011;26160;51.858;4.398;2024-02-21T10:47:08;11.30;;;8.00;;
40453;SDS011;26160;51.858;4.398;2024-02-21T10:49:39;12.40;;;8.27;;
40453;SDS011;26160;51.858;4.398;2024-02-21T10:52:11;14.13;;;9.23;;
40453;SDS011;26160;51.858;4.398;2024-02-21T10:55:04;12.47;;;8.37;;
40453;SDS011;26160;51.858;4.398;2024-02-21T10:57:35;21.20;;;9.60;;
40453;SDS011;26160;51.858;4.398;2024-02-21T11:00:03;16.03;;;9.10;;
40453;SDS011;26160;51.858;4.398;2024-02-21T11:02:33;15.73;;;9.43;;
40453;SDS011;26160;51.858;4.398;2024-02-21T11:05:01;18.13;;;9.50;;
40453;SDS011;26160;51.858;4.398;2024-02-21T11:07:30;14.23;;;8.70;;
40453;SDS011;26160;51.858;4.398;2024-02-21T11:09:58;17.42;;;9.45;;
40453;SDS011;26160;51.858;4.398;2024-02-21T11:12:25;17.70;;;9.32;;
40453;SDS011;26160;51.858;4.398;2024-02-21T11:14:59;13.00;;;9.23;;
40453;SDS011;26160;51.858;4.398;2024-02-21T11:17:30;14.10;;;9.13;;
40453;SDS011;26160;51.858;4.398;2024-02-21T11:19:56;11.98;;;8.70;;
40453;SDS011;26160;51.858;4.398;2024-02-21T11:22:24;17.90;;;9.40;;
40453;SDS011;26160;51.858;4.398;2024-02-21T11:24:54;13.43;;;8.68;;
40453;SDS011;26160;51.858;4.398;2024-02-21T11:27:22;14.20;;;9.00;;
40453;SDS011;26160;51.858;4.398;2024-02-21T11:29:56;14.43;;;7.80;;
40453;SDS011;26160;51.858;4.398;2024-02-21T11:32:23;14.23;;;7.73;;
40453;SDS011;26160;51.858;4.398;2024-02-21T11:35:00;12.90;;;8.52;;
40453;SDS011;26160;51.858;4.398;2024-02-21T11:37:29;12.90;;;7.97;;
40453;SDS011;26160;51.858;4.398;2024-02-21T11:40:02;12.68;;;7.90;;
40453;SDS011;26160;51.858;4.398;2024-02-21T11:42:29;12.98;;;7.70;;
40453;SDS011;26160;51.858;4.398;2024-02-21T11:44:56;15.80;;;7.75;;
40453;SDS011;26160;51.858;4.398;2024-02-21T11:47:23;15.35;;;7.90;;
40453;SDS011;26160;51.858;4.398;2024-02-21T11:49:49;14.32;;;7.75;;
40453;SDS011;26160;51.858;4.398;2024-02-21T11:52:21;15.65;;;8.00;;
40453;SDS011;26160;51.858;4.398;2024-02-21T11:54:50;12.45;;;8.00;;
40453;SDS011;26160;51.858;4.398;2024-02-21T11:57:18;13.02;;;8.45;;
40453;SDS011;26160;51.858;4.398;2024-02-21T11:59:44;15.68;;;8.82;;
40453;SDS011;26160;51.858;4.398;2024-02-21T12:02:12;13.50;;;7.63;;
40453;SDS011;26160;51.858;4.398;2024-02-21T12:04:39;12.70;;;8.23;;
40453;SDS011;26160;51.858;4.398;2024-02-21T12:07:06;17.50;;;7.80;;
40453;SDS011;26160;51.858;4.398;2024-02-21T12:09:33;11.17;;;7.80;;
40453;SDS011;26160;51.858;4.398;2024-02-21T12:12:01;10.53;;;7.77;;
40453;SDS011;26160;51.858;4.398;2024-02-21T12:14:31;14.57;;;7.90;;
40453;SDS011;26160;51.858;4.398;2024-02-21T12:16:59;13.90;;;8.37;;
40453;SDS011;26160;51.858;4.398;2024-02-21T12:19:30;14.50;;;8.47;;
40453;SDS011;26160;51.858;4.398;2024-02-21T12:22:00;13.63;;;7.83;;
40453;SDS011;26160;51.858;4.398;2024-02-21T12:24:27;14.33;;;8.07;;
40453;SDS011;26160;51.858;4.398;2024-02-21T12:26:54;14.90;;;7.30;;
40453;SDS011;26160;51.858;4.398;2024-02-21T12:29:22;12.93;;;7.23;;
40453;SDS011;26160;51.858;4.398;2024-02-21T12:31:52;10.70;;;6.83;;
40453;SDS011;26160;51.858;4.398;2024-02-21T12:34:23;12.07;;;6.70;;
40453;SDS011;26160;51.858;4.398;2024-02-21T12:36:49;12.47;;;7.33;;
40453;SDS011;26160;51.858;4.398;2024-02-21T12:39:23;15.53;;;7.00;;
40453;SDS011;26160;51.858;4.398;2024-02-21T12:41:54;11.23;;;7.80;;
40453;SDS011;26160;51.858;4.398;2024-02-21T12:44:22;15.07;;;6.70;;
40453;SDS011;26160;51.858;4.398;2024-02-21T12:46:49;16.43;;;7.27;;
40453;SDS011;26160;51.858;4.398;2024-02-21T12:49:17;13.53;;;7.40;;
40453;SDS011;26160;51.858;4.398;2024-02-21T12:51:44;13.37;;;7.03;;
40453;SDS011;26160;51.858;4.398;2024-02-21T12:54:12;17.97;;;6.87;;
40453;SDS011;26160;51.858;4.398;2024-02-21T12:56:38;12.97;;;6.87;;
40453;SDS011;26160;51.858;4.398;2024-02-21T12:59:05;14.50;;;7.10;;
40453;SDS011;26160;51.858;4.398;2024-02-21T13:01:35;9.97;;;7.10;;
40453;SDS011;26160;51.858;4.398;2024-02-21T13:04:02;12.27;;;7.27;;
40453;SDS011;26160;51.858;4.398;2024-02-21T13:06:28;15.30;;;7.60;;
40453;SDS011;26160;51.858;4.398;2024-02-21T13:08:55;12.67;;;7.10;;
40453;SDS011;26160;51.858;4.398;2024-02-21T13:11:21;14.83;;;7.30;;
40453;SDS011;26160;51.858;4.398;2024-02-21T13:13:47;12.00;;;6.90;;
40453;SDS011;26160;51.858;4.398;2024-02-21T13:16:14;11.13;;;6.00;;
40453;SDS011;26160;51.858;4.398;2024-02-21T13:18:40;12.30;;;6.63;;
40453;SDS011;26160;51.858;4.398;2024-02-21T13:21:08;14.57;;;6.43;;
40453;SDS011;26160;51.858;4.398;2024-02-21T13:23:34;10.70;;;6.13;;
40453;SDS011;26160;51.858;4.398;2024-02-21T13:26:01;11.43;;;6.03;;
40453;SDS011;26160;51.858;4.398;2024-02-21T13:28:27;13.97;;;6.70;;
40453;SDS011;26160;51.858;4.398;2024-02-21T13:30:53;15.27;;;6.30;;
40453;SDS011;26160;51.858;4.398;2024-02-21T13:33:19;12.90;;;6.20;;
40453;SDS011;26160;51.858;4.398;2024-02-21T13:35:45;15.37;;;6.70;;
40453;SDS011;26160;51.858;4.398;2024-02-21T13:38:12;11.93;;;6.30;;
40453;SDS011;26160;51.858;4.398;2024-02-21T13:40:39;14.13;;;6.30;;
40453;SDS011;26160;51.858;4.398;2024-02-21T13:43:05;14.43;;;7.70;;
40453;SDS011;26160;51.858;4.398;2024-02-21T13:45:31;15.17;;;6.90;;
40453;SDS011;26160;51.858;4.398;2024-02-21T13:47:57;13.13;;;6.23;;
40453;SDS011;26160;51.858;4.398;2024-02-21T13:52:55;13.57;;;7.00;;
40453;SDS011;26160;51.858;4.398;2024-02-21T13:55:21;12.03;;;6.67;;
40453;SDS011;26160;51.858;4.398;2024-02-21T13:57:53;12.85;;;7.32;;
40453;SDS011;26160;51.858;4.398;2024-02-21T14:00:20;13.97;;;7.53;;
40453;SDS011;26160;51.858;4.398;2024-02-21T14:02:46;13.37;;;8.07;;
40453;SDS011;26160;51.858;4.398;2024-02-21T14:05:12;14.67;;;8.17;;
40453;SDS011;26160;51.858;4.398;2024-02-21T14:07:40;13.47;;;7.73;;
40453;SDS011;26160;51.858;4.398;2024-02-21T14:10:07;14.30;;;7.70;;
40453;SDS011;26160;51.858;4.398;2024-02-21T14:12:35;16.20;;;8.30;;
40453;SDS011;26160;51.858;4.398;2024-02-21T14:15:01;14.27;;;8.87;;
40453;SDS011;26160;51.858;4.398;2024-02-21T14:17:27;15.27;;;8.27;;
40453;SDS011;26160;51.858;4.398;2024-02-21T14:19:53;13.03;;;8.63;;
40453;SDS011;26160;51.858;4.398;2024-02-21T14:22:19;16.23;;;7.90;;
40453;SDS011;26160;51.858;4.398;2024-02-21T14:24:46;17.07;;;8.37;;
40453;SDS011;26160;51.858;4.398;2024-02-21T14:27:12;14.53;;;8.30;;
40453;SDS011;26160;51.858;4.398;2024-02-21T14:29:39;12.60;;;8.37;;
40453;SDS011;26160;51.858;4.398;2024-02-21T14:32:05;15.47;;;8.63;;
40453;SDS011;26160;51.858;4.398;2024-02-21T14:34:32;15.63;;;8.60;;
40453;SDS011;26160;51.858;4.398;2024-02-21T14:36:58;12.67;;;8.30;;
40453;SDS011;26160;51.858;4.398;2024-02-21T14:39:24;12.43;;;8.30;;